Time;durP1;ratioP1;P1;durP2;ratioP2;P2;SDS_P1;SDS_P2;PMS_P1;PMS_P2;Temp;Humidity;BMP_temperature;BMP_pressure;BME280_temperature;BME280_humidity;BME280_pressure;Samples;Min_cycle;Max_cycle;Signal;HPM_P1;HPM_P2
2021/09/18 00:01:55;;;;;;;10.38;8.38;;;;;;;;;;5018521;28;20459;-58
2021/09/18 00:04:21;;;;;;;9.25;8.43;;;;;;;;;;5035250;28;20065;-58
2021/09/18 00:06:49;;;;;;;9.45;8.07;;;;;;;;;;5035853;28;20033;-58
2021/09/18 00:09:15;;;;;;;10.88;8.55;;;;;;;;;;5036151;28;20033;-58
2021/09/18 00:11:41;;;;;;;10.57;8.98;;;;;;;;;;5035819;28;20108;-57
2021/09/18 00:14:07;;;;;;;10.60;9.50;;;;;;;;;;5018635;28;20057;-57
2021/09/18 00:16:33;;;;;;;14.38;9.38;;;;;;;;;;5035196;28;20045;-58
2021/09/18 00:18:59;;;;;;;10.35;9.25;;;;;;;;;;5035421;28;20411;-58
2021/09/18 00:21:25;;;;;;;9.82;8.85;;;;;;;;;;5018164;28;20075;-58
2021/09/18 00:23:54;;;;;;;10.70;9.63;;;;;;;;;;5036238;28;20022;-57
2021/09/18 00:26:23;;;;;;;11.13;9.98;;;;;;;;;;5035731;28;20039;-58
2021/09/18 00:28:49;;;;;;;15.52;10.38;;;;;;;;;;5018286;28;20116;-58
2021/09/18 00:31:15;;;;;;;9.32;8.35;;;;;;;;;;5035760;28;20072;-58
2021/09/18 00:33:43;;;;;;;9.38;8.40;;;;;;;;;;5035445;28;20125;-58
2021/09/18 00:36:12;;;;;;;10.20;9.27;;;;;;;;;;5035308;28;20033;-58
2021/09/18 00:38:38;;;;;;;12.57;8.68;;;;;;;;;;5017725;28;20036;-58
2021/09/18 00:41:04;;;;;;;13.32;9.18;;;;;;;;;;5035297;28;20029;-58
2021/09/18 00:43:30;;;;;;;10.20;8.93;;;;;;;;;;5036062;28;20089;-58
2021/09/18 00:45:56;;;;;;;10.30;9.27;;;;;;;;;;5018223;28;20428;-58
2021/09/18 00:48:22;;;;;;;9.93;8.90;;;;;;;;;;5035122;28;20141;-58
2021/09/18 00:50:48;;;;;;;10.02;8.68;;;;;;;;;;5017118;28;20082;-58
2021/09/18 00:53:14;;;;;;;9.43;8.30;;;;;;;;;;5035449;28;20120;-58
2021/09/18 00:55:42;;;;;;;11.07;8.57;;;;;;;;;;5016469;28;20046;-58
2021/09/18 00:58:08;;;;;;;9.65;8.63;;;;;;;;;;5017230;28;20101;-58
2021/09/18 01:00:34;;;;;;;12.90;9.98;;;;;;;;;;5034846;28;20424;-58
2021/09/18 01:03:00;;;;;;;11.10;9.38;;;;;;;;;;5035468;28;20030;-58
2021/09/18 01:05:26;;;;;;;15.63;9.77;;;;;;;;;;5033440;28;20037;-57
2021/09/18 01:07:54;;;;;;;11.35;9.00;;;;;;;;;;5035261;28;20025;-58
2021/09/18 01:10:20;;;;;;;11.80;10.25;;;;;;;;;;5034684;28;20083;-58
2021/09/18 01:13:05;;;;;;;10.93;9.05;;;;;;;;;;5034839;28;20407;-58
2021/09/18 01:15:34;;;;;;;10.85;8.82;;;;;;;;;;5034591;28;20025;-57
2021/09/18 01:18:01;;;;;;;12.18;10.02;;;;;;;;;;5034615;28;20025;-58
2021/09/18 01:20:28;;;;;;;9.60;8.23;;;;;;;;;;5016879;28;20021;-58
2021/09/18 01:22:56;;;;;;;11.77;9.10;;;;;;;;;;5035307;28;20033;-58
2021/09/18 01:25:22;;;;;;;9.18;7.72;;;;;;;;;;5034376;28;20044;-58
2021/09/18 01:27:48;;;;;;;9.75;8.32;;;;;;;;;;5034011;28;20120;-58
2021/09/18 01:30:18;;;;;;;9.48;8.40;;;;;;;;;;5016685;28;20057;-57
2021/09/18 01:32:44;;;;;;;10.05;8.73;;;;;;;;;;5017233;28;20412;-58
2021/09/18 01:35:10;;;;;;;12.32;9.18;;;;;;;;;;5033833;28;20456;-57
2021/09/18 01:37:36;;;;;;;10.68;9.63;;;;;;;;;;5034995;28;20017;-58
2021/09/18 01:40:03;;;;;;;9.20;8.10;;;;;;;;;;5034742;28;20025;-58
2021/09/18 01:42:29;;;;;;;10.55;8.77;;;;;;;;;;5034531;28;20396;-58
2021/09/18 01:44:55;;;;;;;8.15;7.22;;;;;;;;;;5034502;28;20461;-58
2021/09/18 01:47:23;;;;;;;11.05;8.88;;;;;;;;;;5034048;28;20160;-58
2021/09/18 01:49:49;;;;;;;9.80;8.68;;;;;;;;;;5016349;28;20034;-58
2021/09/18 01:52:48;;;;;;;12.07;8.57;;;;;;;;;;5034618;28;20034;-58
2021/09/18 01:55:08;;;;;;;11.18;9.68;;;;;;;;;;5031428;28;20041;-58
2021/09/18 01:57:34;;;;;;;10.88;8.98;;;;;;;;;;5033919;28;20036;-58
2021/09/18 02:00:02;;;;;;;10.15;8.75;;;;;;;;;;5034129;28;20026;-58
2021/09/18 02:02:28;;;;;;;12.80;9.25;;;;;;;;;;5016190;28;20116;-58
2021/09/18 02:04:57;;;;;;;11.55;9.25;;;;;;;;;;5015785;28;20065;-58
2021/09/18 02:07:25;;;;;;;12.32;9.85;;;;;;;;;;5034129;28;20033;-58
2021/09/18 02:09:51;;;;;;;10.75;9.30;;;;;;;;;;5033792;28;20025;-58
2021/09/18 02:12:17;;;;;;;11.45;10.25;;;;;;;;;;5016678;28;20120;-58
2021/09/18 02:14:43;;;;;;;12.70;10.15;;;;;;;;;;5034301;28;20483;-58
2021/09/18 02:17:09;;;;;;;12.55;10.57;;;;;;;;;;5033646;28;20061;-58
2021/09/18 02:19:35;;;;;;;15.93;9.90;;;;;;;;;;5034180;28;20025;-58
2021/09/18 02:22:01;;;;;;;11.52;9.50;;;;;;;;;;5033948;28;20030;-58
2021/09/18 02:24:27;;;;;;;11.50;9.57;;;;;;;;;;5033611;28;20083;-58
2021/09/18 02:26:53;;;;;;;10.73;9.45;;;;;;;;;;5033558;28;20521;-58
2021/09/18 02:29:19;;;;;;;10.45;8.95;;;;;;;;;;5033905;28;20075;-58
2021/09/18 02:31:45;;;;;;;10.82;9.55;;;;;;;;;;5015852;28;20029;-58
2021/09/18 02:34:11;;;;;;;10.77;9.68;;;;;;;;;;5033433;28;20026;-58
2021/09/18 02:36:37;;;;;;;11.82;9.13;;;;;;;;;;5033539;28;20033;-58
2021/09/18 02:39:06;;;;;;;12.35;9.68;;;;;;;;;;5033510;28;20083;-58
2021/09/18 02:41:32;;;;;;;10.90;9.68;;;;;;;;;;5015481;28;20029;-58
2021/09/18 02:44:01;;;;;;;11.25;10.02;;;;;;;;;;5016068;28;20424;-58
2021/09/18 02:46:27;;;;;;;12.30;9.18;;;;;;;;;;5015634;28;20463;-58
2021/09/18 02:48:53;;;;;;;9.73;8.25;;;;;;;;;;5033909;28;20040;-58
2021/09/18 02:51:21;;;;;;;10.95;9.75;;;;;;;;;;4999192;28;20388;-58
2021/09/18 02:53:47;;;;;;;10.55;9.38;;;;;;;;;;5033673;28;20030;-58
2021/09/18 02:56:13;;;;;;;8.98;8.13;;;;;;;;;;5033039;28;20029;-58
2021/09/18 02:58:39;;;;;;;11.32;9.75;;;;;;;;;;5033279;28;20083;-58
2021/09/18 03:01:08;;;;;;;10.68;9.48;;;;;;;;;;5033315;28;20025;-58
2021/09/18 03:03:34;;;;;;;13.63;9.50;;;;;;;;;;4999070;28;20029;-58
2021/09/18 03:05:59;;;;;;;13.30;9.82;;;;;;;;;;5015644;28;20380;-58
2021/09/18 03:08:25;;;;;;;13.13;10.75;;;;;;;;;;5015209;28;20221;-58
2021/09/18 03:10:52;;;;;;;15.43;10.57;;;;;;;;;;5033511;28;20033;-58
2021/09/18 03:13:18;;;;;;;10.75;9.65;;;;;;;;;;5015222;28;20136;-58
2021/09/18 03:15:44;;;;;;;12.60;9.73;;;;;;;;;;5033145;28;20051;-58
2021/09/18 03:18:10;;;;;;;9.77;8.77;;;;;;;;;;5033138;28;20034;-58
2021/09/18 03:20:36;;;;;;;11.23;9.73;;;;;;;;;;5033108;28;20451;-58
2021/09/18 03:23:05;;;;;;;9.90;8.75;;;;;;;;;;5015182;28;20041;-58
2021/09/18 03:25:31;;;;;;;14.52;9.82;;;;;;;;;;5033507;28;20026;-58
2021/09/18 03:27:57;;;;;;;9.65;8.60;;;;;;;;;;5033933;28;20037;-58
2021/09/18 03:30:23;;;;;;;10.70;8.70;;;;;;;;;;5018905;28;20025;-58
2021/09/18 03:32:52;;;;;;;10.90;8.13;;;;;;;;;;5036710;28;20065;-58
2021/09/18 03:35:18;;;;;;;11.05;8.68;;;;;;;;;;5018712;28;20103;-58
2021/09/18 03:37:44;;;;;;;12.02;9.10;;;;;;;;;;5036472;28;20459;-57
2021/09/18 03:40:14;;;;;;;10.48;9.05;;;;;;;;;;5037053;28;20112;-58
2021/09/18 03:42:40;;;;;;;10.63;8.45;;;;;;;;;;5018773;28;20025;-58
2021/09/18 03:45:06;;;;;;;13.57;8.85;;;;;;;;;;5036842;28;20033;-58
2021/09/18 03:47:32;;;;;;;10.68;9.40;;;;;;;;;;5018865;28;20112;-58
2021/09/18 03:50:02;;;;;;;10.82;7.95;;;;;;;;;;5036372;28;20482;-56
2021/09/18 03:52:28;;;;;;;10.20;8.48;;;;;;;;;;5037167;28;20025;-57
2021/09/18 03:54:56;;;;;;;14.50;8.88;;;;;;;;;;5036529;28;20026;-57
2021/09/18 03:57:22;;;;;;;9.90;8.90;;;;;;;;;;5018784;28;20082;-58
2021/09/18 03:59:48;;;;;;;10.82;9.55;;;;;;;;;;5036132;28;20029;-58
2021/09/18 04:02:14;;;;;;;12.70;8.90;;;;;;;;;;5036712;28;20048;-57
2021/09/18 04:04:43;;;;;;;11.65;8.25;;;;;;;;;;5018838;28;20025;-58
2021/09/18 04:07:09;;;;;;;12.65;8.82;;;;;;;;;;5035964;28;20045;-58
2021/09/18 04:09:36;;;;;;;12.30;8.68;;;;;;;;;;5018655;28;20053;-58
2021/09/18 04:12:02;;;;;;;8.68;7.63;;;;;;;;;;5036532;28;20025;-58
2021/09/18 04:14:28;;;;;;;9.45;7.85;;;;;;;;;;5036761;28;20460;-57
2021/09/18 04:16:54;;;;;;;10.32;8.48;;;;;;;;;;5036340;28;20079;-57
2021/09/18 04:19:20;;;;;;;10.50;8.15;;;;;;;;;;5018137;28;20025;-58
2021/09/18 04:21:46;;;;;;;9.15;8.18;;;;;;;;;;5035525;28;20034;-58
2021/09/18 04:24:12;;;;;;;11.73;8.82;;;;;;;;;;5036481;28;20419;-58
2021/09/18 04:26:38;;;;;;;9.77;7.93;;;;;;;;;;5035595;28;20057;-58
2021/09/18 04:29:04;;;;;;;11.73;9.40;;;;;;;;;;5001693;28;20034;-58
2021/09/18 04:31:30;;;;;;;11.07;8.50;;;;;;;;;;5036064;28;20018;-58
2021/09/18 04:33:56;;;;;;;8.80;7.90;;;;;;;;;;5018642;28;20033;-58
2021/09/18 04:36:22;;;;;;;11.93;9.57;;;;;;;;;;5035264;28;20033;-58
2021/09/18 04:38:51;;;;;;;10.98;8.65;;;;;;;;;;5035209;28;20021;-58
2021/09/18 04:41:17;;;;;;;10.43;8.52;;;;;;;;;;5035036;28;20029;-58
2021/09/18 04:43:44;;;;;;;12.65;8.65;;;;;;;;;;5035345;28;20136;-58
2021/09/18 04:46:10;;;;;;;10.80;9.57;;;;;;;;;;5018038;28;20063;-58
2021/09/18 04:48:36;;;;;;;13.40;11.00;;;;;;;;;;5035203;28;20048;-59
2021/09/18 04:51:02;;;;;;;17.45;9.88;;;;;;;;;;5035709;28;20030;-58
2021/09/18 04:53:28;;;;;;;11.07;8.90;;;;;;;;;;5034847;28;20472;-58
2021/09/18 04:55:54;;;;;;;14.85;10.07;;;;;;;;;;5035054;28;20112;-57
2021/09/18 04:58:20;;;;;;;15.63;10.25;;;;;;;;;;5017324;28;20487;-58
2021/09/18 05:00:48;;;;;;;12.60;10.50;;;;;;;;;;5017540;28;20021;-58
2021/09/18 05:03:14;;;;;;;10.52;9.45;;;;;;;;;;5017473;28;20037;-58
2021/09/18 05:05:40;;;;;;;9.88;8.88;;;;;;;;;;5016859;28;20034;-58
2021/09/18 05:08:06;;;;;;;11.88;8.77;;;;;;;;;;5017402;28;20033;-57
2021/09/18 05:10:32;;;;;;;18.55;10.23;;;;;;;;;;5034433;28;20056;-58
2021/09/18 05:12:58;;;;;;;12.57;9.77;;;;;;;;;;5034630;28;20053;-58
2021/09/18 05:15:24;;;;;;;12.88;10.13;;;;;;;;;;5017935;28;20420;-57
2021/09/18 05:17:53;;;;;;;11.35;9.50;;;;;;;;;;5017026;28;20087;-58
2021/09/18 05:20:19;;;;;;;15.35;10.25;;;;;;;;;;5034430;28;20032;-58
2021/09/18 05:22:46;;;;;;;13.43;9.48;;;;;;;;;;5017123;28;20021;-58
2021/09/18 05:25:12;;;;;;;9.57;8.27;;;;;;;;;;5034960;28;20328;-57
2021/09/18 05:27:41;;;;;;;11.70;9.57;;;;;;;;;;5034947;28;20100;-58
2021/09/18 05:30:07;;;;;;;14.07;9.80;;;;;;;;;;5034039;28;20467;-58
2021/09/18 05:32:33;;;;;;;11.88;9.82;;;;;;;;;;5034712;28;20037;-58
2021/09/18 05:34:59;;;;;;;14.38;9.23;;;;;;;;;;5016515;28;20030;-57
2021/09/18 05:37:25;;;;;;;14.68;10.68;;;;;;;;;;5034257;28;20100;-58
2021/09/18 05:39:54;;;;;;;11.60;10.07;;;;;;;;;;5034280;28;20055;-57
2021/09/18 05:42:20;;;;;;;11.30;9.27;;;;;;;;;;5017240;28;20025;-58
2021/09/18 05:44:46;;;;;;;13.48;9.88;;;;;;;;;;5034071;28;20021;-58
2021/09/18 05:47:14;;;;;;;12.20;10.82;;;;;;;;;;5034501;28;20033;-58
2021/09/18 05:49:41;;;;;;;10.88;9.77;;;;;;;;;;5034074;28;20443;-58
2021/09/18 05:52:07;;;;;;;10.77;9.65;;;;;;;;;;5016136;28;20364;-58
2021/09/18 05:54:33;;;;;;;11.15;9.93;;;;;;;;;;5033644;28;20141;-58
2021/09/18 05:56:59;;;;;;;15.60;10.32;;;;;;;;;;5034637;28;20072;-58
2021/09/18 05:59:25;;;;;;;12.23;10.50;;;;;;;;;;5033973;28;20025;-58
2021/09/18 06:01:51;;;;;;;12.98;9.95;;;;;;;;;;5016247;28;20027;-57
2021/09/18 06:04:17;;;;;;;10.73;9.63;;;;;;;;;;5016176;28;20030;-57
2021/09/18 06:06:43;;;;;;;11.00;9.90;;;;;;;;;;5016115;28;20037;-57
2021/09/18 06:09:09;;;;;;;13.20;10.50;;;;;;;;;;5033864;28;20108;-57
2021/09/18 06:11:38;;;;;;;13.77;9.90;;;;;;;;;;5033484;28;20104;-56
2021/09/18 06:14:04;;;;;;;12.98;10.35;;;;;;;;;;5016146;28;20148;-57
2021/09/18 06:16:31;;;;;;;10.30;8.80;;;;;;;;;;5033274;28;20454;-58
2021/09/18 06:18:57;;;;;;;10.07;8.82;;;;;;;;;;5033681;28;20026;-57
2021/09/18 06:21:32;;;;;;;10.73;8.82;;;;;;;;;;5034121;28;20028;-58
2021/09/18 06:23:58;;;;;;;10.20;9.07;;;;;;;;;;5034014;28;20088;-58
2021/09/18 06:26:24;;;;;;;10.73;8.82;;;;;;;;;;5016634;28;20464;-58
2021/09/18 06:28:52;;;;;;;9.88;8.93;;;;;;;;;;5016288;28;20065;-58
2021/09/18 06:31:28;;;;;;;10.85;9.75;;;;;;;;;;5033278;28;20026;-58
2021/09/18 06:33:54;;;;;;;14.27;10.35;;;;;;;;;;5015600;28;20040;-58
2021/09/18 06:36:20;;;;;;;12.18;10.88;;;;;;;;;;5033273;28;20108;-58
2021/09/18 06:38:46;;;;;;;13.57;11.73;;;;;;;;;;5033922;28;20112;-58
2021/09/18 06:41:15;;;;;;;16.27;12.52;;;;;;;;;;5000048;28;20104;-58
2021/09/18 06:43:41;;;;;;;13.63;12.32;;;;;;;;;;5015342;28;20033;-58
2021/09/18 06:46:07;;;;;;;16.85;12.27;;;;;;;;;;5016249;28;20375;-58
2021/09/18 06:48:33;;;;;;;14.27;12.77;;;;;;;;;;5016316;28;20542;-58
2021/09/18 06:51:00;;;;;;;14.90;13.32;;;;;;;;;;5033539;28;20060;-58
2021/09/18 06:53:28;;;;;;;17.65;14.63;;;;;;;;;;5033248;28;20025;-58
2021/09/18 06:55:55;;;;;;;15.95;13.38;;;;;;;;;;5033289;28;20045;-58
2021/09/18 06:58:21;;;;;;;15.00;13.10;;;;;;;;;;5015629;28;20021;-58
2021/09/18 07:00:47;;;;;;;13.82;12.15;;;;;;;;;;5033304;28;20117;-58
2021/09/18 07:03:13;;;;;;;15.30;13.05;;;;;;;;;;5019778;28;20132;-58
2021/09/18 07:05:39;;;;;;;15.65;11.60;;;;;;;;;;5037059;28;20371;-57
2021/09/18 07:08:05;;;;;;;14.77;12.13;;;;;;;;;;5018843;28;20056;-58
2021/09/18 07:10:31;;;;;;;15.73;12.45;;;;;;;;;;5037602;28;20064;-58
2021/09/18 07:12:58;;;;;;;12.05;10.88;;;;;;;;;;5018800;28;20137;-58
2021/09/18 07:15:24;;;;;;;15.15;12.27;;;;;;;;;;5019724;28;20036;-58
2021/09/18 07:17:51;;;;;;;13.63;11.82;;;;;;;;;;5019122;28;20025;-58
2021/09/18 07:20:18;;;;;;;19.85;13.07;;;;;;;;;;5018984;28;20057;-58
2021/09/18 07:22:44;;;;;;;13.73;11.52;;;;;;;;;;5036544;28;20021;-58
2021/09/18 07:25:10;;;;;;;12.88;10.95;;;;;;;;;;5018781;28;20029;-58
2021/09/18 07:27:36;;;;;;;12.32;11.13;;;;;;;;;;5019407;28;20479;-58
2021/09/18 07:30:03;;;;;;;12.38;10.52;;;;;;;;;;5036563;28;20111;-58
2021/09/18 07:32:29;;;;;;;12.40;11.02;;;;;;;;;;5037108;28;20029;-58
2021/09/18 07:34:55;;;;;;;11.90;10.80;;;;;;;;;;5036509;28;20021;-58
2021/09/18 07:37:21;;;;;;;11.77;10.68;;;;;;;;;;5036447;28;20379;-58
2021/09/18 07:39:48;;;;;;;12.68;10.52;;;;;;;;;;5036802;28;20036;-58
2021/09/18 07:42:14;;;;;;;12.70;10.93;;;;;;;;;;5036448;28;20056;-57
2021/09/18 07:44:40;;;;;;;15.93;11.02;;;;;;;;;;5036049;28;20060;-58
2021/09/18 07:47:06;;;;;;;11.75;10.02;;;;;;;;;;5036699;28;20383;-58
2021/09/18 07:49:35;;;;;;;13.60;11.38;;;;;;;;;;5002088;28;20360;-57
2021/09/18 07:52:02;;;;;;;10.02;9.05;;;;;;;;;;5018966;28;20389;-57
2021/09/18 07:54:31;;;;;;;13.13;11.02;;;;;;;;;;5018143;28;20384;-58
2021/09/18 07:56:57;;;;;;;14.48;10.32;;;;;;;;;;5035909;28;20037;-58
2021/09/18 07:59:23;;;;;;;12.23;10.18;;;;;;;;;;5036042;28;20159;-58
2021/09/18 08:01:49;;;;;;;10.95;9.80;;;;;;;;;;5036712;28;20095;-58
2021/09/18 08:04:15;;;;;;;11.77;9.88;;;;;;;;;;5019335;28;20021;-58
2021/09/18 08:06:41;;;;;;;12.25;10.07;;;;;;;;;;5035932;28;20036;-58
2021/09/18 08:09:09;;;;;;;10.55;9.45;;;;;;;;;;5035975;28;20115;-58
2021/09/18 08:11:38;;;;;;;12.70;9.95;;;;;;;;;;5036422;28;20371;-58
2021/09/18 08:14:04;;;;;;;8.88;8.05;;;;;;;;;;5035670;28;20085;-58
2021/09/18 08:16:31;;;;;;;10.27;9.27;;;;;;;;;;5036331;28;20025;-58
2021/09/18 08:18:57;;;;;;;8.93;7.82;;;;;;;;;;5036105;28;20518;-58
2021/09/18 08:21:23;;;;;;;10.15;9.15;;;;;;;;;;5018831;28;20029;-59
2021/09/18 08:23:52;;;;;;;7.97;6.97;;;;;;;;;;5035569;28;20026;-59
2021/09/18 08:26:18;;;;;;;8.57;7.25;;;;;;;;;;5017788;28;20029;-58
2021/09/18 08:28:44;;;;;;;12.20;8.52;;;;;;;;;;5001964;28;20542;-58
2021/09/18 08:31:10;;;;;;;9.05;8.07;;;;;;;;;;5036327;28;20021;-58
2021/09/18 08:33:40;;;;;;;9.60;8.70;;;;;;;;;;5035823;28;20049;-58
2021/09/18 08:36:06;;;;;;;7.72;6.90;;;;;;;;;;5035424;28;20025;-58
2021/09/18 08:38:32;;;;;;;8.68;7.22;;;;;;;;;;5017677;28;20026;-58
2021/09/18 08:40:58;;;;;;;7.68;6.53;;;;;;;;;;5035849;28;20033;-58
2021/09/18 08:43:24;;;;;;;8.35;7.53;;;;;;;;;;5036103;28;20368;-58
2021/09/18 08:45:50;;;;;;;8.60;7.38;;;;;;;;;;5017490;28;20080;-58
2021/09/18 08:48:17;;;;;;;10.82;7.43;;;;;;;;;;5035212;28;20033;-58
2021/09/18 08:50:43;;;;;;;8.43;7.45;;;;;;;;;;5035227;28;20036;-58
2021/09/18 08:53:10;;;;;;;10.05;7.72;;;;;;;;;;5035117;28;20022;-59
2021/09/18 08:55:36;;;;;;;8.30;7.40;;;;;;;;;;5035343;28;20061;-58
2021/09/18 08:58:02;;;;;;;7.78;6.80;;;;;;;;;;5034916;28;20026;-58
2021/09/18 09:00:34;;;;;;;7.00;6.30;;;;;;;;;;5034891;28;20018;-58
2021/09/18 09:03:08;;;;;;;7.82;7.00;;;;;;;;;;5034636;28;20533;-58
2021/09/18 09:05:39;;;;;;;7.93;6.65;;;;;;;;;;5035011;28;20029;-58
2021/09/18 09:08:05;;;;;;;;;;;;;;;;;;5035162;28;20029;-58
2021/09/18 09:10:31;;;;;;;8.13;7.10;;;;;;;;;;5035215;28;19909;-58
2021/09/18 09:13:04;;;;;;;8.30;7.05;;;;;;;;;;5034632;28;20081;-59
2021/09/18 09:15:30;;;;;;;5.97;5.30;;;;;;;;;;5034713;28;20025;-59
2021/09/18 09:18:16;;;;;;;6.13;4.90;;;;;;;;;;5034828;28;20422;-59
2021/09/18 09:20:42;;;;;;;7.88;6.10;;;;;;;;;;5017141;28;20048;-59
2021/09/18 09:23:17;;;;;;;7.47;5.95;;;;;;;;;;5017883;28;20022;-58
2021/09/18 09:25:43;;;;;;;7.85;7.05;;;;;;;;;;5033551;28;20084;-59
2021/09/18 09:28:28;;;;;;;7.35;5.55;;;;;;;;;;5034917;28;20059;-59
2021/09/18 09:30:55;;;;;;;8.85;5.85;;;;;;;;;;5034212;28;20044;-59
2021/09/18 09:33:21;;;;;;;5.10;3.95;;;;;;;;;;5034944;28;20030;-58
2021/09/18 09:35:47;;;;;;;5.00;3.75;;;;;;;;;;5033822;28;20472;-58
2021/09/18 09:38:14;;;;;;;5.25;3.95;;;;;;;;;;5016439;28;20033;-59
2021/09/18 09:40:44;;;;;;;5.57;4.28;;;;;;;;;;5034605;28;20073;-59
2021/09/18 09:43:14;;;;;;;5.13;3.70;;;;;;;;;;5035000;28;20029;-59
2021/09/18 09:45:44;;;;;;;6.57;4.22;;;;;;;;;;5017027;28;20030;-59
2021/09/18 09:48:10;;;;;;;6.47;3.78;;;;;;;;;;5034078;28;20029;-59
2021/09/18 09:50:37;;;;;;;5.85;3.70;;;;;;;;;;5034083;28;20018;-58
2021/09/18 09:53:04;;;;;;;5.00;3.40;;;;;;;;;;5034436;28;20025;-59
2021/09/18 09:55:34;;;;;;;4.63;3.50;;;;;;;;;;5033742;28;20022;-59
2021/09/18 09:58:00;;;;;;;;;;;;;;;;;;5016609;28;20088;-59
2021/09/18 10:00:36;;;;;;;2.60;1.92;;;;;;;;;;5033865;28;19909;-59
2021/09/18 10:03:04;;;;;;;2.67;1.95;;;;;;;;;;5016843;28;20029;-59
2021/09/18 10:05:30;;;;;;;4.10;2.35;;;;;;;;;;5033713;28;20025;-59
2021/09/18 10:07:59;;;;;;;4.15;2.67;;;;;;;;;;5016384;28;20033;-59
2021/09/18 10:10:25;;;;;;;5.82;3.00;;;;;;;;;;5033686;28;20060;-59
2021/09/18 10:12:52;;;;;;;3.25;2.33;;;;;;;;;;5016716;28;20381;-59
2021/09/18 10:15:18;;;;;;;3.60;2.15;;;;;;;;;;5033747;28;20097;-59
2021/09/18 10:17:46;;;;;;;3.33;1.48;;;;;;;;;;5015831;28;20519;-58
2021/09/18 10:23:13;;;;;;;3.25;2.00;;;;;;;;;;5016578;28;20072;-59
2021/09/18 10:23:15;;;;;;;3.47;2.17;;;;;;;;;;5033304;28;20025;-58
2021/09/18 10:25:44;;;;;;;3.17;2.28;;;;;;;;;;5033915;28;20028;-59
2021/09/18 10:28:12;;;;;;;2.83;1.95;;;;;;;;;;5033464;28;20091;-59
2021/09/18 10:30:38;;;;;;;2.40;1.35;;;;;;;;;;5033790;28;20444;-59
2021/09/18 10:33:04;;;;;;;2.47;1.85;;;;;;;;;;5033403;28;20029;-59
2021/09/18 10:35:31;;;;;;;2.08;1.20;;;;;;;;;;5033492;28;20363;-59
2021/09/18 10:37:57;;;;;;;2.78;1.90;;;;;;;;;;5036910;28;20029;-59
2021/09/18 10:40:23;;;;;;;3.47;2.50;;;;;;;;;;5037645;28;20027;-59
2021/09/18 10:42:50;;;;;;;2.60;1.45;;;;;;;;;;5037967;28;20034;-59
2021/09/18 10:45:17;;;;;;;2.88;1.33;;;;;;;;;;5037464;28;20017;-59
2021/09/18 10:47:48;;;;;;;2.55;1.30;;;;;;;;;;5037485;28;20036;-59
2021/09/18 10:50:24;;;;;;;4.30;1.30;;;;;;;;;;5019751;28;20426;-59
2021/09/18 10:53:02;;;;;;;2.20;1.23;;;;;;;;;;5037819;28;20065;-59
2021/09/18 10:55:30;;;;;;;2.28;1.38;;;;;;;;;;5037258;28;20029;-59
2021/09/18 10:57:55;;;;;;;3.88;1.55;;;;;;;;;;5037340;28;20028;-59
2021/09/18 11:00:21;;;;;;;2.63;1.45;;;;;;;;;;5037280;28;20021;-59
2021/09/18 11:02:48;;;;;;;3.38;1.38;;;;;;;;;;5037260;28;20398;-59
2021/09/18 11:05:29;;;;;;;2.08;1.20;;;;;;;;;;5037113;28;20025;-59
2021/09/18 11:07:59;;;;;;;1.92;1.20;;;;;;;;;;5037311;28;20108;-59
2021/09/18 11:10:25;;;;;;;2.33;1.30;;;;;;;;;;5003342;28;20030;-59
2021/09/18 11:13:06;;;;;;;2.55;1.50;;;;;;;;;;5036844;28;20054;-59
2021/09/18 11:15:39;;;;;;;2.67;1.95;;;;;;;;;;5019763;28;20451;-59
2021/09/18 11:18:09;;;;;;;3.35;1.60;;;;;;;;;;5019729;28;20026;-59
2021/09/18 11:20:36;;;;;;;3.00;1.60;;;;;;;;;;5037406;28;20033;-59
2021/09/18 11:23:03;;;;;;;3.08;2.35;;;;;;;;;;5036783;28;20037;-59
2021/09/18 11:25:34;;;;;;;2.70;2.10;;;;;;;;;;5036675;28;20075;-59
2021/09/18 11:28:07;;;;;;;3.65;2.58;;;;;;;;;;5036703;28;20022;-59
2021/09/18 11:30:40;;;;;;;3.58;2.45;;;;;;;;;;5036410;28;20030;-58
2021/09/18 11:33:06;;;;;;;4.10;2.83;;;;;;;;;;5037492;28;20071;-59
2021/09/18 11:35:32;;;;;;;4.53;3.05;;;;;;;;;;5036552;28;20033;-59
2021/09/18 11:38:04;;;;;;;4.18;2.92;;;;;;;;;;5036767;28;20024;-59
2021/09/18 11:40:31;;;;;;;3.30;2.70;;;;;;;;;;5019147;28;20018;-59
2021/09/18 11:42:58;;;;;;;4.35;3.22;;;;;;;;;;5037137;28;20025;-59
2021/09/18 11:45:24;;;;;;;3.78;2.97;;;;;;;;;;5018258;28;20040;-59
2021/09/18 11:47:56;;;;;;;3.75;3.13;;;;;;;;;;5036044;28;20100;-59
2021/09/18 11:50:25;;;;;;;7.13;3.42;;;;;;;;;;5018618;28;20545;-59
2021/09/18 11:52:52;;;;;;;4.90;3.10;;;;;;;;;;5019109;28;20033;-59
2021/09/18 11:55:26;;;;;;;10.88;3.78;;;;;;;;;;5036268;28;20053;-59
2021/09/18 11:58:07;;;;;;;4.43;3.03;;;;;;;;;;5035801;28;20022;-59
2021/09/18 12:00:34;;;;;;;3.83;3.03;;;;;;;;;;5036003;28;20076;-59
2021/09/18 12:03:00;;;;;;;3.80;2.85;;;;;;;;;;5018673;28;20406;-59
2021/09/18 12:05:26;;;;;;;4.22;3.13;;;;;;;;;;5036651;28;20072;-59
2021/09/18 12:07:52;;;;;;;4.05;2.85;;;;;;;;;;5035959;28;20029;-59
2021/09/18 12:10:20;;;;;;;3.95;2.92;;;;;;;;;;5036478;28;20021;-59
2021/09/18 12:12:49;;;;;;;4.20;3.72;;;;;;;;;;5018008;28;20017;-59
2021/09/18 12:15:15;;;;;;;4.30;3.30;;;;;;;;;;5036090;28;20426;-59
2021/09/18 12:17:42;;;;;;;4.00;2.30;;;;;;;;;;5035752;28;20030;-59
2021/09/18 12:20:09;;;;;;;5.25;3.13;;;;;;;;;;5035654;28;20032;-59
2021/09/18 12:22:35;;;;;;;3.65;2.42;;;;;;;;;;5035825;28;20104;-59
2021/09/18 12:25:01;;;;;;;5.30;2.50;;;;;;;;;;5035698;28;20100;-59
2021/09/18 12:27:31;;;;;;;3.97;2.65;;;;;;;;;;5036145;28;20025;-58
2021/09/18 12:30:08;;;;;;;3.30;2.30;;;;;;;;;;5035518;28;20057;-58
2021/09/18 12:32:35;;;;;;;4.35;2.53;;;;;;;;;;5036329;28;20030;-58
2021/09/18 12:35:06;;;;;;;3.33;2.90;;;;;;;;;;5017526;28;20022;-58
2021/09/18 12:37:33;;;;;;;3.35;2.20;;;;;;;;;;5018759;28;20443;-58
2021/09/18 12:40:10;;;;;;;2.72;2.05;;;;;;;;;;5035388;28;20051;-58
2021/09/18 12:42:36;;;;;;;3.67;2.35;;;;;;;;;;5018225;28;20153;-58
2021/09/18 12:45:19;;;;;;;3.45;2.55;;;;;;;;;;5035246;28;20107;-58
2021/09/18 12:47:45;;;;;;;2.90;2.08;;;;;;;;;;5035510;28;20041;-57
2021/09/18 12:50:16;;;;;;;3.15;2.22;;;;;;;;;;5017670;28;20120;-58
2021/09/18 12:52:42;;;;;;;3.17;2.00;;;;;;;;;;5018259;28;20347;-58
2021/09/18 12:55:08;;;;;;;3.40;2.38;;;;;;;;;;5035736;28;20124;-58
2021/09/18 12:57:34;;;;;;;2.85;1.92;;;;;;;;;;5017286;28;20096;-58
2021/09/18 13:00:05;;;;;;;2.78;1.77;;;;;;;;;;5034895;28;20032;-58
2021/09/18 13:02:31;;;;;;;3.33;2.35;;;;;;;;;;5017929;28;20025;-58
2021/09/18 13:05:00;;;;;;;2.63;1.85;;;;;;;;;;5035133;28;20044;-58
2021/09/18 13:07:27;;;;;;;4.15;2.20;;;;;;;;;;5035301;28;20051;-58
2021/09/18 13:09:57;;;;;;;2.85;2.10;;;;;;;;;;5016920;28;20033;-58
2021/09/18 13:12:24;;;;;;;2.58;1.48;;;;;;;;;;5034348;28;20057;-58
2021/09/18 13:14:51;;;;;;;2.92;2.05;;;;;;;;;;5016611;28;20377;-58
2021/09/18 13:17:36;;;;;;;3.53;2.47;;;;;;;;;;5035332;28;20060;-58
2021/09/18 13:20:16;;;;;;;3.10;1.98;;;;;;;;;;5017215;28;20475;-58
2021/09/18 13:22:43;;;;;;;2.92;1.85;;;;;;;;;;5034973;28;20059;-58
2021/09/18 13:25:10;;;;;;;3.47;2.42;;;;;;;;;;5034386;28;20092;-58
2021/09/18 13:27:36;;;;;;;5.20;3.05;;;;;;;;;;5034381;28;20076;-58
2021/09/18 13:30:03;;;;;;;2.67;1.98;;;;;;;;;;5034064;28;20494;-58
2021/09/18 13:32:29;;;;;;;2.60;2.15;;;;;;;;;;5017114;28;20026;-58
2021/09/18 13:34:55;;;;;;;3.13;2.30;;;;;;;;;;5034256;28;20039;-58
2021/09/18 13:37:22;;;;;;;3.22;2.28;;;;;;;;;;5034653;28;20424;-58
2021/09/18 13:39:49;;;;;;;3.38;2.65;;;;;;;;;;5034757;28;20033;-58
2021/09/18 13:42:16;;;;;;;2.72;1.73;;;;;;;;;;5034816;28;20076;-58
2021/09/18 13:44:42;;;;;;;3.33;1.83;;;;;;;;;;5034026;28;20028;-58
2021/09/18 13:47:08;;;;;;;4.05;2.80;;;;;;;;;;5034258;28;20083;-58
2021/09/18 13:49:35;;;;;;;3.58;2.30;;;;;;;;;;5034322;28;20471;-58
2021/09/18 13:52:01;;;;;;;3.13;2.25;;;;;;;;;;5034529;28;20057;-58
2021/09/18 13:54:27;;;;;;;3.35;1.88;;;;;;;;;;5033708;28;20494;-58
2021/09/18 13:56:54;;;;;;;3.63;2.10;;;;;;;;;;5033784;28;20092;-58
2021/09/18 13:59:20;;;;;;;2.38;1.80;;;;;;;;;;5034711;28;20416;-58
2021/09/18 14:01:46;;;;;;;2.80;2.10;;;;;;;;;;5034318;28;20359;-58
2021/09/18 14:04:12;;;;;;;3.22;1.88;;;;;;;;;;5015885;28;20022;-58
2021/09/18 14:06:41;;;;;;;3.30;1.95;;;;;;;;;;5034241;28;20029;-58
2021/09/18 14:09:08;;;;;;;3.15;1.95;;;;;;;;;;5033829;28;20423;-58
2021/09/18 14:11:35;;;;;;;2.70;1.95;;;;;;;;;;5033199;28;20029;-58
2021/09/18 14:14:01;;;;;;;3.28;2.05;;;;;;;;;;5033668;28;20123;-58
2021/09/18 14:16:26;;;;;;;3.70;2.15;;;;;;;;;;5033749;28;20029;-58
2021/09/18 14:18:53;;;;;;;2.72;1.65;;;;;;;;;;5033325;28;20072;-58
2021/09/18 14:21:19;;;;;;;2.33;1.70;;;;;;;;;;5033637;28;20104;-58
2021/09/18 14:23:45;;;;;;;2.72;2.17;;;;;;;;;;5033602;28;20463;-58
2021/09/18 14:26:15;;;;;;;5.45;3.30;;;;;;;;;;5033519;28;20032;-58
2021/09/18 14:28:41;;;;;;;3.45;3.00;;;;;;;;;;5033940;28;20029;-58
2021/09/18 14:31:07;;;;;;;6.47;2.85;;;;;;;;;;5033600;28;20522;-58
2021/09/18 14:33:33;;;;;;;4.13;3.13;;;;;;;;;;5033681;28;20029;-58
2021/09/18 14:35:59;;;;;;;5.10;3.72;;;;;;;;;;5033345;28;20484;-58
2021/09/18 14:38:25;;;;;;;3.40;2.97;;;;;;;;;;5033367;28;20045;-58